createdAt,value
2022-08-30T00:00:04.999Z,11.36
2022-08-30T00:01:04.986Z,11.38
2022-08-30T00:02:04.974Z,11.39
2022-08-30T00:03:05.005Z,11.39
2022-08-30T00:04:05.016Z,11.36
2022-08-30T00:05:04.931Z,11.39
2022-08-30T00:06:04.972Z,11.44
2022-08-30T00:07:04.935Z,11.39
2022-08-30T00:08:04.893Z,11.38
2022-08-30T00:09:04.909Z,11.36
2022-08-30T00:10:04.877Z,11.39
2022-08-30T00:11:04.854Z,11.44
2022-08-30T00:12:04.840Z,11.41
2022-08-30T00:13:04.832Z,11.45
2022-08-30T00:14:04.839Z,11.42
2022-08-30T00:15:04.820Z,11.42
2022-08-30T00:16:04.948Z,11.41
2022-08-30T00:17:04.789Z,11.45
2022-08-30T00:18:04.752Z,11.44
2022-08-30T00:19:04.781Z,11.45
2022-08-30T00:20:04.730Z,11.48
2022-08-30T00:21:04.737Z,11.49
2022-08-30T00:22:04.708Z,11.49
2022-08-30T00:23:04.718Z,11.46
2022-08-30T00:24:04.699Z,11.45
2022-08-30T00:25:04.669Z,11.41
2022-08-30T00:26:04.649Z,11.39
2022-08-30T00:27:04.638Z,11.35
2022-08-30T00:28:04.619Z,11.33
2022-08-30T00:29:04.650Z,11.30
2022-08-30T00:30:04.637Z,11.27
2022-08-30T00:31:04.622Z,11.24
2022-08-30T00:32:04.621Z,11.21
2022-08-30T00:33:04.558Z,11.19
2022-08-30T00:34:04.580Z,11.16
2022-08-30T00:35:04.581Z,11.17
2022-08-30T00:36:04.526Z,11.13
2022-08-30T00:37:04.509Z,11.13
2022-08-30T00:38:04.490Z,11.09
2022-08-30T00:39:04.506Z,11.09
2022-08-30T00:40:04.547Z,11.06
2022-08-30T00:41:04.487Z,11.06
2022-08-30T00:42:04.455Z,11.09
2022-08-30T00:43:05.896Z,11.06
2022-08-30T00:44:04.438Z,11.09
2022-08-30T00:45:04.463Z,11.12
2022-08-30T00:46:04.452Z,11.16
2022-08-30T00:47:04.378Z,11.19
2022-08-30T00:48:04.358Z,11.26
2022-08-30T00:49:04.393Z,11.26
2022-08-30T00:50:04.336Z,11.28
2022-08-30T00:51:04.329Z,11.28
2022-08-30T00:52:04.300Z,11.27
2022-08-30T00:53:04.304Z,11.24
2022-08-30T00:54:04.310Z,11.24
2022-08-30T00:55:04.294Z,11.19
2022-08-30T00:56:04.250Z,11.13
2022-08-30T00:57:04.268Z,11.09
2022-08-30T00:58:04.349Z,11.08
2022-08-30T00:59:04.249Z,11.03
2022-08-30T01:00:04.199Z,11.05
2022-08-30T01:01:04.260Z,10.99
2022-08-30T01:02:04.303Z,10.99
2022-08-30T01:03:04.214Z,10.99
2022-08-30T01:04:04.199Z,11.02
2022-08-30T01:05:04.191Z,10.98
2022-08-30T01:06:04.120Z,11.02
2022-08-30T01:07:25.121Z,11.03
2022-08-30T01:08:04.099Z,11.05
2022-08-30T01:09:04.122Z,11.05
2022-08-30T01:10:04.069Z,11.09
2022-08-30T01:11:04.065Z,11.11
2022-08-30T01:12:04.048Z,11.11
2022-08-30T01:13:04.029Z,11.12
2022-08-30T01:14:04.237Z,11.11
2022-08-30T01:15:04.009Z,11.11
2022-08-30T01:16:04.102Z,11.11
2022-08-30T01:17:04.006Z,11.13
2022-08-30T01:18:03.967Z,11.12
2022-08-30T01:19:03.978Z,11.12
2022-08-30T01:20:03.937Z,11.12
2022-08-30T01:21:03.920Z,11.12
2022-08-30T01:22:03.923Z,11.13
2022-08-30T01:23:03.892Z,11.17
2022-08-30T01:24:03.987Z,11.20
2022-08-30T01:25:03.902Z,11.24
2022-08-30T01:26:03.867Z,11.27
2022-08-30T01:27:03.838Z,11.31
2022-08-30T01:28:03.838Z,11.35
2022-08-30T01:29:03.868Z,11.39
2022-08-30T01:30:03.811Z,11.39
2022-08-30T01:31:03.848Z,11.36
2022-08-30T01:32:03.804Z,11.35
2022-08-30T01:33:03.759Z,11.30
2022-08-30T01:34:03.777Z,11.27
2022-08-30T01:35:03.762Z,11.21
2022-08-30T01:36:03.729Z,11.19
2022-08-30T01:37:03.718Z,11.13
2022-08-30T01:38:03.705Z,11.09
2022-08-30T01:39:03.742Z,11.03
2022-08-30T01:40:03.703Z,10.99
2022-08-30T01:41:03.657Z,10.94
2022-08-30T01:42:03.648Z,10.90
2022-08-30T01:43:03.638Z,10.87
2022-08-30T01:44:03.686Z,10.88
2022-08-30T01:45:03.607Z,10.90
2022-08-30T01:46:03.614Z,10.87
2022-08-30T01:47:03.589Z,10.88
2022-08-30T01:48:06.774Z,10.91
2022-08-30T01:49:03.587Z,10.93
2022-08-30T01:50:03.555Z,10.95
2022-08-30T01:51:03.538Z,10.95
2022-08-30T01:52:03.508Z,10.94
2022-08-30T01:53:03.502Z,10.93
2022-08-30T01:54:03.520Z,10.91
2022-08-30T01:55:03.478Z,10.93
2022-08-30T01:56:03.477Z,10.88
2022-08-30T01:57:03.515Z,10.87
2022-08-30T01:58:03.461Z,10.86
2022-08-30T01:59:03.697Z,10.84
2022-08-30T02:00:03.515Z,10.80
2022-08-30T02:01:03.426Z,10.75
2022-08-30T02:02:03.387Z,10.75
2022-08-30T02:03:03.379Z,10.70
2022-08-30T02:04:03.453Z,10.69
2022-08-30T02:05:03.347Z,10.68
2022-08-30T02:06:03.330Z,10.65
2022-08-30T02:07:03.327Z,10.63
2022-08-30T02:08:03.317Z,10.63
2022-08-30T02:09:03.420Z,10.58
2022-08-30T02:10:03.287Z,10.52
2022-08-30T02:11:03.256Z,10.49
2022-08-30T02:12:03.266Z,10.51
2022-08-30T02:13:03.247Z,10.51
2022-08-30T02:14:03.247Z,10.54
2022-08-30T02:15:03.208Z,10.55
2022-08-30T02:16:03.200Z,10.62
2022-08-30T02:17:03.291Z,10.58
2022-08-30T02:18:03.218Z,10.63
2022-08-30T02:19:03.187Z,10.69
2022-08-30T02:20:03.168Z,10.72
2022-08-30T02:21:03.126Z,10.73
2022-08-30T02:22:03.155Z,10.72
2022-08-30T02:23:03.118Z,10.69
2022-08-30T02:24:03.125Z,10.70
2022-08-30T02:25:03.068Z,10.69
2022-08-30T02:26:03.868Z,10.65
2022-08-30T02:27:03.046Z,10.66
2022-08-30T02:28:03.048Z,10.63
2022-08-30T02:29:03.046Z,10.58
2022-08-30T02:30:03.025Z,10.57
2022-08-30T02:31:03.123Z,10.58
2022-08-30T02:32:02.984Z,10.58
2022-08-30T02:33:02.978Z,10.58
2022-08-30T02:34:02.986Z,10.58
2022-08-30T02:35:02.935Z,10.60
2022-08-30T02:36:02.930Z,10.54
2022-08-30T02:37:02.922Z,10.55
2022-08-30T02:38:02.907Z,10.47
2022-08-30T02:39:02.927Z,10.47
2022-08-30T02:40:02.944Z,10.46
2022-08-30T02:41:02.866Z,10.42
2022-08-30T02:42:02.859Z,10.46
2022-08-30T02:43:02.837Z,10.46
2022-08-30T02:44:02.856Z,10.44
2022-08-30T02:45:02.811Z,10.47
2022-08-30T02:46:02.907Z,10.51
2022-08-30T02:47:02.787Z,10.54
2022-08-30T02:48:02.816Z,10.51
2022-08-30T02:49:23.750Z,10.54
2022-08-30T02:50:03.735Z,10.57
2022-08-30T02:51:02.748Z,10.57
2022-08-30T02:52:02.713Z,10.55
2022-08-30T02:53:02.713Z,10.55
2022-08-30T02:54:02.715Z,10.57
2022-08-30T02:55:02.675Z,10.54
2022-08-30T02:56:02.661Z,10.49
2022-08-30T02:57:02.673Z,10.49
2022-08-30T02:58:02.634Z,10.47
2022-08-30T02:59:02.666Z,10.43
2022-08-30T03:00:02.619Z,10.43
2022-08-30T03:01:02.669Z,10.42
2022-08-30T03:02:02.594Z,10.39
2022-08-30T03:03:02.576Z,10.39
2022-08-30T03:04:02.680Z,10.36
2022-08-30T03:05:02.555Z,10.36
2022-08-30T03:06:02.534Z,10.36
2022-08-30T03:07:02.527Z,10.34
2022-08-30T03:08:02.505Z,10.38
2022-08-30T03:09:02.542Z,10.36
2022-08-30T03:10:02.629Z,10.35
2022-08-30T03:11:02.464Z,10.35
2022-08-30T03:12:02.464Z,10.34
2022-08-30T03:13:02.449Z,10.35
2022-08-30T03:14:02.549Z,10.39
2022-08-30T03:15:02.422Z,10.43
2022-08-30T03:16:02.484Z,10.38
2022-08-30T03:17:02.390Z,10.46
2022-08-30T03:18:02.376Z,10.43
2022-08-30T03:19:02.395Z,10.44
2022-08-30T03:20:02.354Z,10.49
2022-08-30T03:21:02.335Z,10.49
2022-08-30T03:22:02.353Z,10.49
2022-08-30T03:23:02.304Z,10.49
2022-08-30T03:24:02.321Z,10.51
2022-08-30T03:25:02.309Z,10.46
2022-08-30T03:26:02.265Z,10.44
2022-08-30T03:27:02.258Z,10.44
2022-08-30T03:28:02.249Z,10.38
2022-08-30T03:29:02.271Z,10.42
2022-08-30T03:30:02.239Z,10.36
2022-08-30T03:31:02.201Z,10.32
2022-08-30T03:32:02.268Z,10.31
2022-08-30T03:33:02.173Z,10.26
2022-08-30T03:34:02.223Z,10.25
2022-08-30T03:35:02.198Z,10.22
2022-08-30T03:36:02.143Z,10.16
2022-08-30T03:37:02.156Z,10.13
2022-08-30T03:38:02.123Z,10.11
2022-08-30T03:39:02.138Z,10.07
2022-08-30T03:40:02.124Z,10.04
2022-08-30T03:41:02.081Z,10.01
2022-08-30T03:42:02.062Z,10.02
2022-08-30T03:43:02.075Z,10.01
2022-08-30T03:44:02.084Z,9.98
2022-08-30T03:45:02.023Z,9.98
2022-08-30T03:46:02.153Z,9.95
2022-08-30T03:47:02.013Z,9.98
2022-08-30T03:48:01.974Z,9.95
2022-08-30T03:49:02.007Z,9.96
2022-08-30T03:50:01.964Z,9.95
2022-08-30T03:51:01.941Z,9.93
2022-08-30T03:52:01.926Z,9.96
2022-08-30T03:53:01.938Z,9.99
2022-08-30T03:54:02.018Z,9.99
2022-08-30T03:55:01.892Z,10.04
2022-08-30T03:56:01.894Z,10.02
2022-08-30T03:57:01.819Z,10.04
2022-08-30T03:58:01.850Z,10.06
2022-08-30T03:59:01.873Z,10.06
2022-08-30T04:00:01.773Z,10.02
2022-08-30T04:01:01.831Z,10.01
2022-08-30T04:02:01.853Z,9.98
2022-08-30T04:03:01.794Z,9.98
2022-08-30T04:04:01.749Z,9.92
2022-08-30T04:05:01.700Z,9.95
2022-08-30T04:06:01.712Z,9.92
2022-08-30T04:07:01.770Z,9.89
2022-08-30T04:08:01.738Z,9.88
2022-08-30T04:09:01.689Z,9.89
2022-08-30T04:10:01.702Z,9.93
2022-08-30T04:11:01.632Z,9.88
2022-08-30T04:12:01.637Z,9.89
2022-08-30T04:13:01.626Z,9.88
2022-08-30T04:14:01.611Z,9.86
2022-08-30T04:15:01.591Z,9.88
2022-08-30T04:16:01.609Z,9.86
2022-08-30T04:17:01.575Z,9.88
2022-08-30T04:18:01.521Z,9.91
2022-08-30T04:19:01.560Z,9.88
2022-08-30T04:20:01.500Z,9.88
2022-08-30T04:21:01.491Z,9.89
2022-08-30T04:22:02.242Z,9.88
2022-08-30T04:23:01.491Z,9.83
2022-08-30T04:24:01.521Z,9.88
2022-08-30T04:25:01.449Z,9.89
2022-08-30T04:26:01.421Z,9.89
2022-08-30T04:27:01.431Z,9.91
2022-08-30T04:28:01.418Z,9.89
2022-08-30T04:29:01.428Z,9.88
2022-08-30T04:30:01.411Z,9.89
2022-08-30T04:31:01.371Z,9.89
2022-08-30T04:32:01.401Z,9.91
2022-08-30T04:33:01.494Z,9.91
2022-08-30T04:34:01.371Z,9.91
2022-08-30T04:35:01.306Z,9.89
2022-08-30T04:36:01.298Z,9.91
2022-08-30T04:37:01.280Z,9.89
2022-08-30T04:38:01.282Z,9.85
2022-08-30T04:39:01.313Z,9.81
2022-08-30T04:40:01.297Z,9.81
2022-08-30T04:41:01.260Z,9.80
2022-08-30T04:42:01.300Z,9.80
2022-08-30T04:43:01.199Z,9.81
2022-08-30T04:44:01.217Z,9.85
2022-08-30T04:45:01.184Z,9.80
2022-08-30T04:46:01.240Z,9.77
2022-08-30T04:47:01.178Z,9.80
2022-08-30T04:48:01.142Z,9.78
2022-08-30T04:49:01.152Z,9.80
2022-08-30T04:50:01.108Z,9.75
2022-08-30T04:51:01.089Z,9.73
2022-08-30T04:52:01.080Z,9.73
2022-08-30T04:53:01.089Z,9.70
2022-08-30T04:54:01.090Z,9.71
2022-08-30T04:55:01.113Z,9.78
2022-08-30T04:56:01.059Z,9.77
2022-08-30T04:57:01.023Z,9.81
2022-08-30T04:58:01.003Z,9.83
2022-08-30T04:59:01.131Z,9.86
2022-08-30T05:00:00.990Z,9.91
2022-08-30T05:01:01.042Z,9.96
2022-08-30T05:02:01.048Z,9.96
2022-08-30T05:03:00.947Z,9.99
2022-08-30T05:04:00.940Z,9.98
2022-08-30T05:05:00.917Z,10.02
2022-08-30T05:06:00.938Z,10.02
2022-08-30T05:07:00.892Z,10.06
2022-08-30T05:08:00.931Z,10.07
2022-08-30T05:09:00.885Z,10.07
2022-08-30T05:10:00.859Z,10.11
2022-08-30T05:11:00.829Z,10.14
2022-08-30T05:12:00.819Z,10.17
2022-08-30T05:13:00.816Z,10.24
2022-08-30T05:14:00.818Z,10.28
2022-08-30T05:15:00.808Z,10.31
2022-08-30T05:16:00.815Z,10.29
2022-08-30T05:17:00.748Z,10.28
2022-08-30T05:18:00.767Z,10.32
2022-08-30T05:19:00.768Z,10.32
2022-08-30T05:20:00.719Z,10.34
2022-08-30T05:21:00.715Z,10.36
2022-08-30T05:22:00.678Z,10.39
2022-08-30T05:23:00.686Z,10.39
2022-08-30T05:24:00.689Z,10.46
2022-08-30T05:25:00.758Z,10.47
2022-08-30T05:26:00.722Z,10.52
2022-08-30T05:27:00.626Z,10.58
2022-08-30T05:28:00.609Z,10.60
2022-08-30T05:29:00.643Z,10.63
2022-08-30T05:30:00.605Z,10.70
2022-08-30T05:31:00.636Z,10.76
2022-08-30T05:32:00.567Z,10.87
2022-08-30T05:33:00.555Z,10.93
2022-08-30T05:34:00.567Z,10.98
2022-08-30T05:35:00.527Z,11.06
2022-08-30T05:36:00.497Z,11.13
2022-08-30T05:37:00.500Z,11.26
2022-08-30T05:38:00.477Z,11.33
2022-08-30T05:39:00.491Z,11.45
2022-08-30T05:40:00.530Z,11.49
2022-08-30T05:41:01.181Z,11.60
2022-08-30T05:42:00.449Z,11.66
2022-08-30T05:43:00.457Z,11.74
2022-08-30T05:44:00.417Z,11.81
2022-08-30T05:45:00.389Z,11.87
2022-08-30T05:46:00.367Z,11.97
2022-08-30T05:47:00.357Z,12.05
2022-08-30T05:48:00.337Z,12.15
2022-08-30T05:49:00.446Z,12.21
2022-08-30T05:50:00.309Z,12.31
2022-08-30T05:51:00.313Z,12.37
2022-08-30T05:52:00.287Z,12.43
2022-08-30T05:53:00.287Z,12.54
2022-08-30T05:54:00.287Z,12.61
2022-08-30T05:55:00.268Z,12.71
2022-08-30T05:56:00.258Z,12.77
2022-08-30T05:57:00.229Z,12.92
2022-08-30T05:58:00.215Z,13.06
2022-08-30T05:59:00.228Z,13.25
2022-08-30T06:00:00.186Z,13.36
2022-08-30T06:01:00.176Z,13.53
2022-08-30T06:02:00.394Z,13.61
2022-08-30T06:03:00.197Z,13.72
2022-08-30T06:04:03.627Z,13.83
2022-08-30T06:05:00.154Z,13.91
2022-08-30T06:06:00.143Z,14.01
2022-08-30T06:07:00.093Z,14.05
2022-08-30T06:08:00.089Z,14.11
2022-08-30T06:09:00.369Z,14.06
2022-08-30T06:10:00.059Z,14.13
2022-08-30T06:11:00.059Z,14.17
2022-08-30T06:12:00.037Z,14.19
2022-08-30T06:13:00.019Z,14.21
2022-08-30T06:14:00.032Z,14.21
2022-08-30T06:14:59.995Z,14.23
2022-08-30T06:16:00.003Z,14.24
2022-08-30T06:16:59.997Z,14.29
2022-08-30T06:17:59.985Z,14.35
2022-08-30T06:18:59.967Z,14.38
2022-08-30T06:19:59.916Z,14.41
2022-08-30T06:20:59.908Z,14.39
2022-08-30T06:21:59.955Z,14.36
2022-08-30T06:22:59.885Z,14.38
2022-08-30T06:23:59.901Z,14.38
2022-08-30T06:24:59.846Z,14.36
2022-08-30T06:25:59.841Z,14.36
2022-08-30T06:26:59.835Z,14.41
2022-08-30T06:27:59.826Z,14.44
2022-08-30T06:28:59.836Z,14.44
2022-08-30T06:29:59.787Z,14.46
2022-08-30T06:30:59.822Z,14.49
2022-08-30T06:31:59.766Z,14.53
2022-08-30T06:32:59.813Z,14.53
2022-08-30T06:33:59.767Z,14.56
2022-08-30T06:34:59.718Z,14.56
2022-08-30T06:36:06.025Z,14.53
2022-08-30T06:36:59.716Z,14.52
2022-08-30T06:37:59.677Z,14.52
2022-08-30T06:38:59.696Z,14.59
2022-08-30T06:39:59.694Z,14.57
2022-08-30T06:40:59.639Z,14.60
2022-08-30T06:41:59.627Z,14.59
2022-08-30T06:42:59.617Z,14.56
2022-08-30T06:43:59.626Z,14.60
2022-08-30T06:44:59.605Z,14.64
2022-08-30T06:45:59.581Z,14.64
2022-08-30T06:46:59.601Z,14.63
2022-08-30T06:47:59.583Z,14.66
2022-08-30T06:48:59.861Z,14.69
2022-08-30T06:49:59.529Z,14.72
2022-08-30T06:50:59.511Z,14.75
2022-08-30T06:51:59.493Z,14.78
2022-08-30T06:52:59.485Z,14.75
2022-08-30T06:53:59.500Z,14.80
2022-08-30T06:54:59.456Z,14.82
2022-08-30T06:55:59.437Z,14.86
2022-08-30T06:56:59.432Z,14.91
2022-08-30T06:57:59.408Z,14.94
2022-08-30T06:58:59.417Z,15.03
2022-08-30T06:59:59.419Z,15.03
2022-08-30T07:00:59.395Z,15.05
2022-08-30T07:01:59.419Z,15.04
2022-08-30T07:02:59.407Z,15.07
2022-08-30T07:03:59.337Z,15.12
2022-08-30T07:04:59.507Z,15.09
2022-08-30T07:05:59.309Z,15.15
2022-08-30T07:06:59.597Z,15.16
2022-08-30T07:07:59.285Z,15.23
2022-08-30T07:08:59.267Z,15.25
2022-08-30T07:09:59.286Z,15.16
2022-08-30T07:10:59.245Z,15.15
2022-08-30T07:11:59.238Z,15.12
2022-08-30T07:12:59.209Z,15.13
2022-08-30T07:13:59.206Z,15.13
2022-08-30T07:14:59.218Z,15.16
2022-08-30T07:15:59.241Z,15.20
2022-08-30T07:16:59.157Z,15.20
2022-08-30T07:17:59.160Z,15.22
2022-08-30T07:18:59.141Z,15.20
2022-08-30T07:19:59.156Z,15.22
2022-08-30T07:20:59.121Z,15.27
2022-08-30T07:21:59.097Z,15.25
2022-08-30T07:22:59.079Z,15.25
2022-08-30T07:23:59.082Z,15.22
2022-08-30T07:24:59.079Z,15.19
2022-08-30T07:25:59.059Z,15.15
2022-08-30T07:26:59.029Z,15.13
2022-08-30T07:27:59.020Z,15.12
2022-08-30T07:28:59.008Z,15.18
2022-08-30T07:29:59.018Z,15.16
2022-08-30T07:30:59.066Z,15.19
2022-08-30T07:31:58.960Z,15.19
2022-08-30T07:32:58.947Z,15.19
2022-08-30T07:33:59.013Z,15.20
2022-08-30T07:34:58.948Z,15.25
2022-08-30T07:35:58.916Z,15.31
2022-08-30T07:36:58.895Z,15.37
2022-08-30T07:37:58.917Z,15.41
2022-08-30T07:38:58.886Z,15.48
2022-08-30T07:39:58.906Z,15.56
2022-08-30T07:40:58.860Z,15.64
2022-08-30T07:41:58.832Z,15.68
2022-08-30T07:42:58.811Z,15.73
2022-08-30T07:43:58.799Z,15.74
2022-08-30T07:44:58.809Z,15.73
2022-08-30T07:45:58.810Z,15.77
2022-08-30T07:46:58.759Z,15.81
2022-08-30T07:47:58.750Z,15.85
2022-08-30T07:48:58.743Z,15.91
2022-08-30T07:49:58.769Z,15.96
2022-08-30T07:51:03.088Z,15.99
2022-08-30T07:51:59.699Z,16.07
2022-08-30T07:52:58.679Z,16.10
2022-08-30T07:53:58.681Z,16.11
2022-08-30T07:54:58.679Z,16.11
2022-08-30T07:55:58.655Z,16.11
2022-08-30T07:56:58.619Z,16.13
2022-08-30T07:57:58.641Z,16.18
2022-08-30T07:58:58.592Z,16.17
2022-08-30T07:59:58.625Z,16.13
2022-08-30T08:00:58.576Z,16.16
2022-08-30T08:01:58.627Z,16.26
2022-08-30T08:02:58.605Z,16.32
2022-08-30T08:03:58.534Z,16.37
2022-08-30T08:04:58.558Z,16.40
2022-08-30T08:05:58.511Z,16.47
2022-08-30T08:06:58.491Z,16.50
2022-08-30T08:07:58.480Z,16.60
2022-08-30T08:08:58.460Z,16.63
2022-08-30T08:09:58.506Z,16.65
2022-08-30T08:10:58.437Z,16.70
2022-08-30T08:11:58.420Z,16.69
2022-08-30T08:12:58.412Z,16.66
2022-08-30T08:13:58.401Z,16.67
2022-08-30T08:14:58.410Z,16.67
2022-08-30T08:15:58.471Z,16.69
2022-08-30T08:16:58.367Z,16.70
2022-08-30T08:17:58.397Z,16.70
2022-08-30T08:18:58.336Z,16.70
2022-08-30T08:19:58.352Z,16.72
2022-08-30T08:20:58.310Z,16.75
2022-08-30T08:22:19.467Z,16.73
2022-08-30T08:22:59.275Z,16.77
2022-08-30T08:23:58.279Z,16.84
2022-08-30T08:24:58.280Z,16.85
2022-08-30T08:25:58.244Z,16.90
2022-08-30T08:26:58.239Z,16.91
2022-08-30T08:27:58.212Z,16.96
2022-08-30T08:28:58.192Z,16.98
2022-08-30T08:29:58.213Z,17.02
2022-08-30T08:30:58.220Z,17.02
2022-08-30T08:31:58.160Z,16.92
2022-08-30T08:32:58.143Z,16.87
2022-08-30T08:33:58.172Z,16.90
2022-08-30T08:34:58.150Z,16.91
2022-08-30T08:35:58.118Z,16.92
2022-08-30T08:36:58.099Z,17.02
2022-08-30T08:37:58.085Z,17.12
2022-08-30T08:38:58.064Z,17.21
2022-08-30T08:39:58.138Z,17.24
2022-08-30T08:40:58.052Z,17.28
2022-08-30T08:41:58.031Z,17.38
2022-08-30T08:42:58.013Z,17.42
2022-08-30T08:43:58.005Z,17.49
2022-08-30T08:44:58.013Z,17.55
2022-08-30T08:45:58.024Z,17.58
2022-08-30T08:46:57.962Z,17.63
2022-08-30T08:47:57.961Z,17.62
2022-08-30T08:49:00.236Z,17.60
2022-08-30T08:49:57.952Z,17.60
2022-08-30T08:51:02.014Z,17.65
2022-08-30T08:51:57.911Z,17.65
2022-08-30T08:52:57.880Z,17.68
2022-08-30T08:53:57.880Z,17.71
2022-08-30T08:54:57.877Z,17.74
2022-08-30T08:55:57.846Z,17.80
2022-08-30T08:56:57.824Z,17.83
2022-08-30T08:57:57.835Z,17.80
2022-08-30T08:58:57.827Z,17.76
2022-08-30T08:59:57.864Z,17.74
2022-08-30T09:00:57.774Z,17.68
2022-08-30T09:01:58.149Z,17.71
2022-08-30T09:02:57.764Z,17.73
2022-08-30T09:03:57.744Z,17.74
2022-08-30T09:04:57.849Z,17.77
2022-08-30T09:05:57.734Z,17.91
2022-08-30T09:06:57.695Z,17.99
2022-08-30T09:07:57.693Z,18.11
2022-08-30T09:08:57.666Z,18.17
2022-08-30T09:09:57.706Z,18.21
2022-08-30T09:10:57.647Z,18.29
2022-08-30T09:11:57.628Z,18.31
2022-08-30T09:13:00.075Z,18.39
2022-08-30T09:13:57.607Z,18.47
2022-08-30T09:14:57.615Z,18.53
2022-08-30T09:15:57.606Z,18.66
2022-08-30T09:16:57.567Z,18.84
2022-08-30T09:17:57.623Z,19.02
2022-08-30T09:18:57.545Z,19.17
2022-08-30T09:19:57.566Z,19.28
2022-08-30T09:20:57.586Z,19.35
2022-08-30T09:21:57.545Z,19.42
2022-08-30T09:22:57.477Z,19.64
2022-08-30T09:23:57.489Z,19.98
2022-08-30T09:24:57.496Z,20.42
2022-08-30T09:25:57.449Z,20.68
2022-08-30T09:26:57.467Z,20.83
2022-08-30T09:27:57.416Z,21.13
2022-08-30T09:28:58.175Z,21.19
2022-08-30T09:29:57.415Z,21.22
2022-08-30T09:30:57.451Z,21.68
2022-08-30T09:32:25.113Z,22.06
2022-08-30T09:32:58.358Z,22.31
2022-08-30T09:33:57.342Z,22.17
2022-08-30T09:34:57.367Z,22.05
2022-08-30T09:35:58.166Z,22.15
2022-08-30T09:36:57.298Z,22.15
2022-08-30T09:37:57.288Z,22.04
2022-08-30T09:38:57.284Z,21.79
2022-08-30T09:39:57.317Z,22.06
2022-08-30T09:40:57.248Z,21.86
2022-08-30T09:41:57.244Z,21.79
2022-08-30T09:42:57.259Z,21.93
2022-08-30T09:43:57.219Z,22.39
2022-08-30T09:44:57.239Z,22.56
2022-08-30T09:45:57.240Z,22.74
2022-08-30T09:46:57.275Z,22.84
2022-08-30T09:47:57.159Z,23.07
2022-08-30T09:48:57.140Z,23.37
2022-08-30T09:49:57.160Z,23.53
2022-08-30T09:50:57.119Z,23.77
2022-08-30T09:51:57.110Z,23.94
2022-08-30T09:52:57.090Z,24.23
2022-08-30T09:54:58.160Z,24.36
2022-08-30T09:55:57.051Z,24.30
2022-08-30T09:56:57.046Z,24.52
2022-08-30T09:57:57.042Z,24.64
2022-08-30T09:58:57.021Z,24.84
2022-08-30T09:59:57.031Z,25.01
2022-08-30T10:00:57.026Z,25.08
2022-08-30T10:01:56.971Z,25.22
2022-08-30T10:02:56.990Z,25.44
2022-08-30T10:03:56.956Z,25.57
2022-08-30T10:04:56.962Z,25.61
2022-08-30T10:05:56.932Z,25.57
2022-08-30T10:06:56.932Z,25.54
2022-08-30T10:07:56.904Z,25.49
2022-08-30T10:08:56.885Z,25.45
2022-08-30T10:09:56.874Z,25.46
2022-08-30T10:10:56.889Z,25.35
2022-08-30T10:11:56.861Z,25.39
2022-08-30T10:12:56.824Z,25.19
2022-08-30T10:13:56.816Z,25.20
2022-08-30T10:14:56.806Z,25.31
2022-08-30T10:15:56.844Z,25.35
2022-08-30T10:16:56.774Z,25.29
2022-08-30T10:17:56.775Z,25.17
2022-08-30T10:18:56.749Z,25.11
2022-08-30T10:19:56.734Z,25.20
2022-08-30T10:20:56.744Z,25.26
2022-08-30T10:21:56.735Z,25.31
2022-08-30T10:22:58.644Z,25.34
2022-08-30T10:23:56.696Z,25.27
2022-08-30T10:24:56.707Z,25.39
2022-08-30T10:25:56.745Z,25.51
2022-08-30T10:26:56.647Z,25.64
2022-08-30T10:27:56.638Z,25.74
2022-08-30T10:28:56.638Z,25.85
2022-08-30T10:29:56.639Z,25.96
2022-08-30T10:30:56.587Z,26.03
2022-08-30T10:31:56.577Z,26.03
2022-08-30T10:32:56.574Z,26.00
2022-08-30T10:33:56.664Z,25.81
2022-08-30T10:34:56.707Z,25.83
2022-08-30T10:35:56.551Z,25.79
2022-08-30T10:36:56.518Z,25.71
2022-08-30T10:37:56.508Z,25.54
2022-08-30T10:38:56.485Z,25.45
2022-08-30T10:39:56.529Z,25.45
2022-08-30T10:40:56.459Z,25.46
2022-08-30T10:41:56.449Z,25.56
2022-08-30T10:42:56.429Z,25.38
2022-08-30T10:43:56.497Z,25.38
2022-08-30T10:44:56.500Z,25.42
2022-08-30T10:45:56.399Z,25.19
2022-08-30T10:46:56.430Z,25.14
2022-08-30T10:47:56.381Z,24.98
2022-08-30T10:48:56.375Z,25.07
2022-08-30T10:49:56.370Z,25.17
2022-08-30T10:50:56.392Z,25.11
2022-08-30T10:51:58.853Z,25.08
2022-08-30T10:52:56.304Z,24.93
2022-08-30T10:53:56.321Z,24.80
2022-08-30T10:54:56.365Z,24.86
2022-08-30T10:55:56.346Z,24.87
2022-08-30T10:56:56.307Z,24.97
2022-08-30T10:57:56.242Z,25.01
2022-08-30T10:58:56.223Z,24.99
2022-08-30T10:59:56.241Z,25.09
2022-08-30T11:00:56.357Z,25.27
2022-08-30T11:01:56.212Z,25.41
2022-08-30T11:02:56.184Z,25.64
2022-08-30T11:03:56.160Z,25.57
2022-08-30T11:04:56.165Z,25.69
2022-08-30T11:05:56.134Z,25.69
2022-08-30T11:06:56.136Z,25.60
2022-08-30T11:07:56.107Z,25.60
2022-08-30T11:08:56.098Z,25.63
2022-08-30T11:09:56.116Z,25.53
2022-08-30T11:10:56.076Z,25.39
2022-08-30T11:11:56.055Z,25.41
2022-08-30T11:12:56.054Z,25.41
2022-08-30T11:13:57.542Z,25.44
2022-08-30T11:14:56.016Z,25.42
2022-08-30T11:15:56.026Z,25.46
2022-08-30T11:16:55.985Z,25.60
2022-08-30T11:17:55.976Z,25.72
2022-08-30T11:18:55.966Z,25.91
2022-08-30T11:19:55.947Z,26.04
2022-08-30T11:20:55.977Z,26.31
2022-08-30T11:21:56.035Z,26.57
2022-08-30T11:22:55.907Z,26.73
2022-08-30T11:23:56.048Z,26.81
2022-08-30T11:24:56.098Z,27.01
2022-08-30T11:25:57.852Z,27.21
2022-08-30T11:26:55.848Z,27.34
2022-08-30T11:27:56.087Z,27.48
2022-08-30T11:28:55.939Z,27.53
2022-08-30T11:29:56.269Z,27.62
2022-08-30T11:30:55.800Z,27.66
2022-08-30T11:31:56.046Z,27.72
2022-08-30T11:32:55.910Z,27.83
2022-08-30T11:33:55.762Z,27.90
2022-08-30T11:34:56.000Z,27.93
2022-08-30T11:35:56.269Z,27.90
2022-08-30T11:36:55.726Z,27.77
2022-08-30T11:37:55.737Z,27.66
2022-08-30T11:38:55.709Z,27.72
2022-08-30T11:39:55.722Z,27.78
2022-08-30T11:40:55.662Z,27.86
2022-08-30T11:41:55.651Z,27.83
2022-08-30T11:42:55.641Z,27.83
2022-08-30T11:43:55.853Z,27.96
2022-08-30T11:44:55.652Z,27.72
2022-08-30T11:45:55.697Z,27.27
2022-08-30T11:46:55.593Z,26.68
2022-08-30T11:47:55.783Z,26.19
2022-08-30T11:48:55.950Z,25.91
2022-08-30T11:49:55.573Z,26.09
2022-08-30T11:50:56.484Z,26.20
2022-08-30T11:52:23.685Z,25.94
2022-08-30T11:52:56.661Z,25.69
2022-08-30T11:53:55.545Z,25.83
2022-08-30T11:54:56.799Z,26.06
2022-08-30T11:55:55.536Z,26.24
2022-08-30T11:56:55.466Z,26.49
2022-08-30T11:57:55.479Z,26.53
2022-08-30T11:58:55.608Z,26.08
2022-08-30T11:59:55.457Z,25.66
2022-08-30T12:00:55.416Z,25.30
2022-08-30T12:01:55.576Z,24.93
2022-08-30T12:02:55.517Z,24.61
2022-08-30T12:03:55.368Z,24.30
2022-08-30T12:04:55.402Z,24.09
2022-08-30T12:05:55.340Z,24.15
2022-08-30T12:06:55.338Z,24.53
2022-08-30T12:07:55.307Z,24.64
2022-08-30T12:08:59.567Z,24.63
2022-08-30T12:09:56.323Z,24.63
2022-08-30T12:10:56.285Z,24.70
2022-08-30T12:11:55.269Z,24.74
2022-08-30T12:12:55.248Z,25.16
2022-08-30T12:13:55.246Z,25.69
2022-08-30T12:14:55.250Z,26.21
2022-08-30T12:15:55.200Z,26.61
2022-08-30T12:16:55.267Z,26.96
2022-08-30T12:17:55.189Z,26.94
2022-08-30T12:18:55.171Z,27.09
2022-08-30T12:19:55.200Z,26.98
2022-08-30T12:20:55.225Z,27.12
2022-08-30T12:21:55.141Z,26.76
2022-08-30T12:22:55.127Z,26.44
2022-08-30T12:23:55.108Z,26.23
2022-08-30T12:24:55.123Z,26.12
2022-08-30T12:25:55.074Z,26.35
2022-08-30T12:26:55.103Z,26.61
2022-08-30T12:27:55.062Z,26.78
2022-08-30T12:28:55.062Z,26.94
2022-08-30T12:29:55.067Z,27.15
2022-08-30T12:30:55.053Z,27.45
2022-08-30T12:31:55.085Z,27.72
2022-08-30T12:32:54.984Z,27.96
2022-08-30T12:33:54.968Z,28.11
2022-08-30T12:34:55.025Z,27.95
2022-08-30T12:35:54.946Z,27.86
2022-08-30T12:36:54.934Z,27.81
2022-08-30T12:37:54.912Z,27.86
2022-08-30T12:38:54.904Z,27.91
2022-08-30T12:39:54.923Z,27.93
2022-08-30T12:40:54.876Z,27.95
2022-08-30T12:41:54.869Z,27.93
2022-08-30T12:42:54.885Z,27.99
2022-08-30T12:43:54.834Z,27.95
2022-08-30T12:44:54.826Z,27.86
2022-08-30T12:45:54.863Z,27.80
2022-08-30T12:47:00.262Z,27.68
2022-08-30T12:47:55.786Z,27.63
2022-08-30T12:48:55.730Z,27.43
2022-08-30T12:49:54.819Z,27.27
2022-08-30T12:50:54.848Z,27.27
2022-08-30T12:51:54.768Z,27.24
2022-08-30T12:52:54.779Z,27.23
2022-08-30T12:53:54.750Z,27.30
2022-08-30T12:54:54.731Z,27.23
2022-08-30T12:55:54.738Z,26.75